Time;durP1;ratioP1;P1;durP2;ratioP2;P2;SDS_P1;SDS_P2;PMS_P1;PMS_P2;Temp;Humidity;BMP_temperature;BMP_pressure;BME280_temperature;BME280_humidity;BME280_pressure;Samples;Min_cycle;Max_cycle;Signal;HPM_P1;HPM_P2
2022/09/27 00:02:39;;;;;;;9.30;8.60;;;12.20;99.90;;;;;;10461660;28;20214;-85
2022/09/27 00:07:41;;;;;;;9.00;8.50;;;12.20;99.90;;;;;;10426728;28;20201;-86
2022/09/27 00:12:43;;;;;;;10.20;9.70;;;12.20;99.90;;;;;;10443408;28;20742;-86
2022/09/27 00:17:50;;;;;;;9.50;9.10;;;12.20;99.90;;;;;;10442880;28;20221;-86
2022/09/27 00:22:52;;;;;;;9.00;8.70;;;12.20;99.90;;;;;;10441989;28;20638;-85
2022/09/27 00:27:54;;;;;;;8.60;8.30;;;12.20;99.90;;;;;;10425796;28;20247;-86
2022/09/27 00:32:58;;;;;;;8.80;8.50;;;12.30;99.90;;;;;;10424495;28;20241;-86
2022/09/27 00:38:00;;;;;;;8.47;8.07;;;12.30;99.90;;;;;;10425874;28;20201;-85
2022/09/27 00:43:03;;;;;;;8.17;7.83;;;12.30;99.90;;;;;;10425874;28;20224;-85
2022/09/27 00:48:06;;;;;;;8.30;8.00;;;12.20;99.90;;;;;;10425865;28;20729;-86
2022/09/27 00:53:13;;;;;;;8.20;7.90;;;12.20;99.90;;;;;;10425081;28;20252;-86
2022/09/27 00:58:18;;;;;;;7.80;7.50;;;12.20;99.90;;;;;;10440253;28;20646;-86
2022/09/27 01:03:31;;;;;;;7.70;7.30;;;12.20;99.90;;;;;;10419520;28;20229;-85
2022/09/27 01:08:34;;;;;;;7.13;6.90;;;12.20;99.90;;;;;;10440626;28;20197;-86
2022/09/27 01:13:43;;;;;;;7.10;6.90;;;12.20;99.90;;;;;;10425435;28;20304;-85
2022/09/27 01:19:03;;;;;;;7.30;7.00;;;12.30;99.90;;;;;;10424612;28;20197;-85
2022/09/27 01:24:23;;;;;;;6.90;6.67;;;12.30;99.90;;;;;;10426302;28;20216;-85
2022/09/27 01:29:32;;;;;;;6.80;6.60;;;12.40;99.90;;;;;;10424374;28;20746;-85
2022/09/27 01:34:44;;;;;;;6.90;6.60;;;12.50;99.90;;;;;;10441906;28;20272;-86
2022/09/27 01:39:52;;;;;;;6.90;6.70;;;12.50;99.90;;;;;;10441393;28;20217;-86
2022/09/27 01:45:13;;;;;;;6.40;6.20;;;12.60;99.90;;;;;;10401752;28;20300;-85
2022/09/27 01:50:32;;;;;;;5.90;5.70;;;12.70;99.90;;;;;;10384748;28;20213;-85
2022/09/27 01:55:38;;;;;;;6.63;6.43;;;12.70;99.90;;;;;;10381768;28;20210;-85
2022/09/27 02:01:14;;;;;;;6.40;6.20;;;12.80;99.90;;;;;;10397639;28;20214;-85
2022/09/27 02:06:21;;;;;;;6.50;6.30;;;12.80;99.90;;;;;;10383265;28;20205;-85
2022/09/27 02:11:48;;;;;;;7.00;6.80;;;12.90;99.90;;;;;;10383986;28;20213;-85
2022/09/27 02:16:54;;;;;;;6.50;6.23;;;13.00;99.90;;;;;;10382268;28;20194;-85
2022/09/27 02:22:15;;;;;;;7.00;6.70;;;13.00;99.90;;;;;;10397444;28;20222;-86
2022/09/27 02:27:23;;;;;;;6.60;6.40;;;13.10;99.90;;;;;;10379935;28;20194;-84
2022/09/27 02:32:26;;;;;;;6.83;6.63;;;13.00;99.90;;;;;;10417437;28;20226;-85
2022/09/27 02:37:30;;;;;;;6.20;6.00;;;13.00;99.90;;;;;;10438611;28;20198;-86
2022/09/27 02:42:33;;;;;;;7.37;7.07;;;12.90;99.90;;;;;;10425262;28;20319;-85
2022/09/27 02:47:50;;;;;;;9.03;8.57;;;12.70;99.90;;;;;;10443982;28;20194;-87
2022/09/27 02:53:06;;;;;;;8.10;7.60;;;12.60;99.90;;;;;;10424679;28;20213;-86
2022/09/27 02:58:23;;;;;;;9.37;8.80;;;12.50;99.90;;;;;;10433093;28;20204;-86
2022/09/27 03:03:58;;;;;;;7.47;7.17;;;12.40;99.90;;;;;;10451555;28;20231;-84
2022/09/27 03:09:02;;;;;;;8.20;7.83;;;12.30;99.90;;;;;;10436322;28;20581;-85
2022/09/27 03:14:04;;;;;;;5.27;5.17;;;12.20;99.90;;;;;;10432509;28;20197;-86
2022/09/27 03:19:07;;;;;;;7.77;7.50;;;12.10;99.90;;;;;;10446329;23;20217;-80
2022/09/27 03:24:30;;;;;;;9.57;8.90;;;12.10;99.90;;;;;;10445571;28;20209;-82
2022/09/27 03:29:33;;;;;;;14.80;13.40;;;12.10;99.90;;;;;;10457370;28;20702;-83
2022/09/27 03:34:41;;;;;;;8.63;8.23;;;12.10;99.90;;;;;;10463160;28;20657;-82
2022/09/27 03:39:44;;;;;;;7.87;7.10;;;12.00;99.90;;;;;;10458207;28;20214;-83
2022/09/27 03:44:47;;;;;;;9.07;8.67;;;12.00;99.90;;;;;;10460341;28;20216;-82
2022/09/27 03:49:49;;;;;;;9.53;9.13;;;12.00;99.90;;;;;;10456646;28;20276;-82
2022/09/27 03:54:53;;;;;;;8.63;8.33;;;12.00;99.90;;;;;;10431919;28;20200;-82
2022/09/27 03:59:55;;;;;;;8.87;8.10;;;12.00;99.90;;;;;;10463826;28;20602;-83
2022/09/27 04:05:18;;;;;;;8.23;7.83;;;12.00;99.90;;;;;;10439612;28;20220;-81
2022/09/27 04:10:22;;;;;;;9.60;9.10;;;12.10;99.90;;;;;;10418282;28;20335;-82
2022/09/27 04:15:26;;;;;;;8.40;8.00;;;12.10;99.90;;;;;;10446201;28;20238;-82
2022/09/27 04:20:46;;;;;;;8.27;7.97;;;12.20;99.90;;;;;;10439676;28;20887;-82
2022/09/27 04:25:51;;;;;;;9.80;8.90;;;12.20;99.90;;;;;;10464685;28;20580;-82
2022/09/27 04:31:03;;;;;;;8.20;7.90;;;12.20;99.90;;;;;;10476596;28;20209;-83
2022/09/27 04:36:28;;;;;;;8.80;8.20;;;12.30;99.90;;;;;;10435945;28;20588;-83
2022/09/27 04:41:55;;;;;;;7.83;7.40;;;12.40;99.90;;;;;;10453535;28;20225;-80
2022/09/27 04:46:58;;;;;;;9.17;8.57;;;12.40;99.90;;;;;;10445177;28;20612;-79
2022/09/27 04:52:00;;;;;;;8.47;8.00;;;12.40;99.90;;;;;;10465080;28;20292;-81
2022/09/27 04:57:04;;;;;;;8.27;7.77;;;12.40;99.90;;;;;;10462846;28;20276;-81
2022/09/27 05:02:07;;;;;;;9.07;8.47;;;12.40;99.90;;;;;;10431124;28;20222;-81
2022/09/27 05:07:24;;;;;;;8.40;8.00;;;12.50;99.90;;;;;;10466631;28;20207;-78
2022/09/27 05:12:33;;;;;;;8.27;7.80;;;12.60;99.90;;;;;;10448994;28;20218;-80
2022/09/27 05:17:37;;;;;;;8.60;8.10;;;12.60;99.90;;;;;;10466712;28;20322;-80
2022/09/27 05:23:03;;;;;;;10.10;9.40;;;12.60;99.90;;;;;;10416810;28;20222;-79
2022/09/27 05:28:08;;;;;;;7.37;6.77;;;12.70;99.90;;;;;;10436846;28;20207;-80
2022/09/27 05:33:10;;;;;;;5.40;5.10;;;12.70;99.90;;;;;;10449364;28;20220;-80
2022/09/27 05:38:18;;;;;;;7.27;6.80;;;12.70;99.90;;;;;;10424581;28;20225;-79
2022/09/27 05:43:27;;;;;;;6.83;6.43;;;12.70;99.90;;;;;;10435130;28;20225;-79
2022/09/27 05:48:30;;;;;;;6.73;6.23;;;12.70;99.90;;;;;;10469506;28;20723;-80
2022/09/27 05:53:40;;;;;;;6.93;6.53;;;12.70;99.90;;;;;;10422053;28;20231;-79
2022/09/27 05:58:52;;;;;;;5.07;4.83;;;12.70;99.90;;;;;;10449358;28;20198;-79
2022/09/27 06:03:55;;;;;;;6.60;6.20;;;12.70;99.90;;;;;;10435318;28;20210;-79
2022/09/27 06:09:27;;;;;;;6.87;6.57;;;12.70;99.90;;;;;;10409610;28;20257;-78
2022/09/27 06:14:34;;;;;;;3.93;3.63;;;12.70;99.90;;;;;;10468392;28;20506;-80
2022/09/27 06:19:43;;;;;;;6.80;6.30;;;12.70;99.90;;;;;;10427342;28;20690;-79
2022/09/27 06:24:45;;;;;;;6.83;6.33;;;12.70;99.90;;;;;;10369010;28;20214;-79
2022/09/27 06:29:57;;;;;;;6.10;5.70;;;12.60;99.90;;;;;;10414690;28;20276;-78
2022/09/27 06:35:13;;;;;;;6.67;6.20;;;12.70;99.90;;;;;;10474948;28;20667;-79
2022/09/27 06:40:16;;;;;;;4.30;4.10;;;12.70;99.90;;;;;;10422272;28;20237;-79
2022/09/27 06:45:45;;;;;;;5.20;5.00;;;12.70;99.90;;;;;;10455988;28;20214;-79
2022/09/27 06:51:16;;;;;;;4.80;4.60;;;12.90;99.90;;;;;;10409612;28;20232;-80
2022/09/27 06:56:19;;;;;;;4.80;4.60;;;13.00;99.90;;;;;;10461358;28;20182;-79
2022/09/27 07:01:29;;;;;;;5.23;4.93;;;13.00;99.90;;;;;;10469127;28;20705;-79
2022/09/27 07:06:58;;;;;;;4.20;3.90;;;13.10;99.90;;;;;;10421149;28;20205;-80
2022/09/27 07:12:04;;;;;;;2.87;2.67;;;13.20;99.90;;;;;;10447788;28;20641;-80
2022/09/27 07:17:08;;;;;;;4.97;4.53;;;13.20;99.90;;;;;;10452114;28;20194;-79
2022/09/27 07:22:16;;;;;;;4.40;4.10;;;13.30;99.90;;;;;;10434614;28;20229;-78
2022/09/27 07:27:24;;;;;;;3.90;3.70;;;13.40;99.90;;;;;;10424564;28;20222;-78
2022/09/27 07:32:27;;;;;;;3.77;3.47;;;13.50;99.90;;;;;;10446585;28;20221;-80
2022/09/27 07:37:32;;;;;;;4.53;4.20;;;13.70;99.90;;;;;;10474580;28;20273;-78
2022/09/27 07:42:36;;;;;;;3.40;3.20;;;13.70;99.90;;;;;;10473897;28;20224;-78
2022/09/27 07:47:41;;;;;;;3.20;3.10;;;13.70;99.90;;;;;;10457307;28;20197;-79
2022/09/27 07:52:57;;;;;;;3.63;3.33;;;13.70;99.90;;;;;;10460120;28;20576;-78
2022/09/27 07:58:22;;;;;;;3.63;3.50;;;13.70;99.90;;;;;;10427131;28;20284;-79
2022/09/27 08:03:28;;;;;;;4.23;3.93;;;13.80;99.90;;;;;;10433032;28;20237;-78
2022/09/27 08:08:30;;;;;;;3.70;3.50;;;13.80;99.90;;;;;;10415779;28;20202;-79
2022/09/27 08:13:34;;;;;;;3.70;3.60;;;13.90;99.90;;;;;;10432644;28;20217;-79
2022/09/27 08:18:38;;;;;;;3.30;3.20;;;14.10;99.90;;;;;;10433914;28;20193;-79
2022/09/27 08:24:02;;;;;;;3.63;3.50;;;14.10;99.90;;;;;;10460253;28;20213;-79
2022/09/27 08:29:24;;;;;;;3.90;3.80;;;14.00;99.90;;;;;;10452682;28;20296;-79
2022/09/27 08:34:29;;;;;;;2.70;2.40;;;13.90;99.90;;;;;;10420025;28;20247;-79
2022/09/27 08:39:32;;;;;;;3.30;3.20;;;13.90;99.90;;;;;;10456668;28;20213;-79
2022/09/27 08:44:49;;;;;;;3.63;3.53;;;13.90;99.90;;;;;;10452529;28;20206;-78
2022/09/27 08:49:58;;;;;;;3.07;2.97;;;13.90;99.90;;;;;;10428322;28;20214;-79
2022/09/27 08:55:04;;;;;;;4.47;4.27;;;14.10;99.90;;;;;;10429056;28;20269;-77
2022/09/27 09:00:11;;;;;;;3.47;3.27;;;14.20;99.90;;;;;;10430486;28;20304;-79
2022/09/27 09:05:23;;;;;;;2.80;2.70;;;14.30;99.90;;;;;;10428113;28;20218;-78
2022/09/27 09:16:12;;;;;;;3.90;3.70;;;14.20;99.90;;;;;;10452258;28;20213;-77
2022/09/27 09:21:32;;;;;;;4.00;3.80;;;14.30;99.90;;;;;;10455098;28;20725;-78
2022/09/27 09:26:42;;;;;;;3.27;3.13;;;14.50;99.90;;;;;;10454678;28;20228;-78
2022/09/27 09:31:51;;;;;;;4.00;3.80;;;14.70;99.90;;;;;;10468949;28;20209;-77
2022/09/27 09:37:01;;;;;;;3.60;3.50;;;14.90;99.90;;;;;;10435184;28;20610;-78
2022/09/27 09:42:12;;;;;;;3.67;3.50;;;15.00;99.90;;;;;;10419580;28;20217;-79
2022/09/27 09:47:28;;;;;;;2.93;2.73;;;15.10;99.90;;;;;;10409865;28;20581;-79
2022/09/27 09:52:40;;;;;;;4.10;3.80;;;15.00;99.90;;;;;;10426573;28;20210;-78
2022/09/27 09:57:52;;;;;;;3.50;3.40;;;15.10;99.90;;;;;;10446423;28;20189;-79
2022/09/27 10:03:00;;;;;;;4.10;3.90;;;15.20;99.90;;;;;;10450570;28;20252;-78
2022/09/27 10:08:07;;;;;;;4.20;4.00;;;15.40;99.90;;;;;;10452910;28;20272;-77
2022/09/27 10:13:15;;;;;;;4.40;4.20;;;15.50;99.20;;;;;;10413192;28;20214;-79
2022/09/27 10:18:19;;;;;;;4.37;4.17;;;15.50;99.20;;;;;;10427848;28;20365;-79
2022/09/27 10:23:25;;;;;;;4.67;4.37;;;15.60;98.60;;;;;;10410858;28;20233;-79
2022/09/27 10:28:49;;;;;;;4.57;4.37;;;15.70;98.70;;;;;;10412036;28;20198;-79
2022/09/27 10:33:56;;;;;;;4.30;4.10;;;15.70;99.00;;;;;;10394223;28;20272;-78
2022/09/27 10:39:05;;;;;;;3.70;3.60;;;15.60;98.90;;;;;;10370379;28;20202;-80
2022/09/27 10:44:24;;;;;;;4.87;4.50;;;15.40;98.60;;;;;;10371499;28;20241;-78
2022/09/27 10:49:46;;;;;;;4.40;4.10;;;15.40;99.50;;;;;;10450232;28;20221;-78
2022/09/27 10:55:23;;;;;;;2.87;2.57;;;15.50;98.80;;;;;;10466098;28;20165;-77
2022/09/27 11:00:31;;;;;;;4.40;4.20;;;15.70;97.40;;;;;;10466047;28;20319;-79
2022/09/27 11:05:37;;;;;;;4.53;4.23;;;15.70;98.20;;;;;;10456082;28;20704;-78
2022/09/27 11:10:40;;;;;;;3.30;3.00;;;15.80;98.90;;;;;;10408930;28;20264;-77
2022/09/27 11:15:57;;;;;;;4.80;4.27;;;15.80;98.80;;;;;;10426010;28;20189;-78
2022/09/27 11:21:08;;;;;;;4.20;4.00;;;15.90;99.30;;;;;;10443893;28;20311;-78
2022/09/27 11:26:24;;;;;;;4.37;4.07;;;16.00;98.00;;;;;;10472953;28;20573;-77
2022/09/27 11:31:46;;;;;;;3.73;3.53;;;16.10;97.90;;;;;;10459613;28;20267;-79
2022/09/27 11:37:02;;;;;;;3.90;3.70;;;16.10;96.80;;;;;;10429433;28;20231;-78
2022/09/27 11:42:28;;;;;;;4.47;4.23;;;16.10;96.40;;;;;;10438946;28;20244;-77
2022/09/27 11:47:40;;;;;;;3.70;3.60;;;16.00;96.50;;;;;;10414204;28;20724;-78
2022/09/27 11:52:58;;;;;;;4.87;4.40;;;16.00;97.00;;;;;;10430790;28;20293;-78
2022/09/27 11:58:08;;;;;;;3.63;3.50;;;16.00;95.40;;;;;;10439039;28;20193;-79
2022/09/27 12:03:41;;;;;;;3.13;3.03;;;16.00;96.30;;;;;;10472352;28;20217;-78
2022/09/27 12:09:01;;;;;;;3.27;3.07;;;15.90;96.30;;;;;;10471929;28;20262;-79
2022/09/27 12:14:11;;;;;;;1.97;1.77;;;15.80;95.80;;;;;;10472207;28;20189;-78
2022/09/27 12:19:19;;;;;;;3.07;2.97;;;15.60;95.30;;;;;;10441561;28;20221;-79
2022/09/27 12:24:33;;;;;;;4.17;3.97;;;15.40;96.50;;;;;;10460613;28;20224;-78
2022/09/27 12:29:57;;;;;;;3.00;2.83;;;15.00;97.90;;;;;;10470205;28;20213;-77
2022/09/27 12:35:05;;;;;;;4.33;4.13;;;14.60;99.90;;;;;;10419947;28;20194;-78
2022/09/27 12:40:16;;;;;;;4.37;4.17;;;14.20;99.90;;;;;;10463214;28;20214;-77
2022/09/27 12:45:30;;;;;;;4.60;4.40;;;13.90;99.90;;;;;;10469694;28;20208;-77
2022/09/27 12:50:38;;;;;;;4.20;4.00;;;13.80;99.90;;;;;;10469779;28;20217;-78
2022/09/27 12:56:10;;;;;;;4.77;4.57;;;13.70;99.90;;;;;;10465618;28;20182;-79
2022/09/27 13:01:27;;;;;;;5.10;4.77;;;13.80;99.90;;;;;;10394185;28;20237;-79
2022/09/27 13:06:55;;;;;;;4.30;4.10;;;13.90;99.90;;;;;;10427731;28;20212;-78
2022/09/27 13:12:04;;;;;;;3.90;3.80;;;14.20;99.90;;;;;;10427743;28;20309;-79
2022/09/27 13:17:32;;;;;;;4.30;4.00;;;14.40;99.90;;;;;;10427262;28;20216;-78
2022/09/27 13:22:40;;;;;;;4.63;4.33;;;14.50;99.90;;;;;;10400778;28;20228;-78
2022/09/27 13:27:56;;;;;;;4.33;4.03;;;14.50;99.90;;;;;;10451812;28;20189;-77
2022/09/27 13:33:33;;;;;;;3.70;3.60;;;14.50;99.90;;;;;;10468181;28;20569;-77
2022/09/27 13:38:38;;;;;;;4.40;4.10;;;14.40;99.90;;;;;;10435444;28;20209;-78
2022/09/27 13:44:03;;;;;;;4.27;4.17;;;14.30;99.90;;;;;;10422551;28;20216;-77
2022/09/27 13:49:31;;;;;;;4.80;4.60;;;14.20;99.90;;;;;;10448824;28;20693;-78
2022/09/27 13:54:55;;;;;;;4.37;4.17;;;14.10;99.90;;;;;;10409705;28;20186;-78
2022/09/27 14:00:05;;;;;;;4.33;4.23;;;14.00;99.90;;;;;;10447716;28;20212;-78
2022/09/27 14:05:31;;;;;;;3.60;3.50;;;14.00;99.90;;;;;;10442852;28;20221;-77
2022/09/27 14:10:34;;;;;;;3.57;3.47;;;13.90;99.90;;;;;;10409481;28;20220;-77
2022/09/27 14:15:37;;;;;;;5.70;5.30;;;13.80;99.90;;;;;;10450869;28;20208;-78
2022/09/27 14:20:44;;;;;;;8.53;8.00;;;13.70;99.90;;;;;;10467311;28;20224;-76
2022/09/27 14:26:28;;;;;;;9.03;8.50;;;13.40;99.90;;;;;;10451590;28;20219;-77
2022/09/27 14:31:30;;;;;;;9.80;9.50;;;13.10;99.90;;;;;;10467124;28;20208;-77
2022/09/27 14:42:31;;;;;;;11.70;11.20;;;12.70;99.90;;;;;;10466827;28;20263;-77
2022/09/27 14:47:33;;;;;;;10.80;10.33;;;12.70;99.90;;;;;;10451271;28;20198;-77
2022/09/27 14:52:39;;;;;;;10.30;9.90;;;12.80;99.90;;;;;;10457695;28;20217;-78
2022/09/27 14:57:46;;;;;;;10.47;10.07;;;12.80;99.90;;;;;;10458858;28;20181;-78
2022/09/27 15:02:53;;;;;;;10.57;10.07;;;12.70;99.90;;;;;;10421902;28;20214;-77
2022/09/27 15:08:00;;;;;;;10.60;10.10;;;12.70;99.90;;;;;;10454152;28;20193;-77
2022/09/27 15:13:04;;;;;;;9.17;8.87;;;12.70;99.90;;;;;;10420264;28;20256;-78
2022/09/27 15:18:38;;;;;;;9.00;8.60;;;12.60;99.90;;;;;;10416547;28;20186;-78
2022/09/27 15:23:43;;;;;;;10.80;10.40;;;12.60;99.90;;;;;;10515334;22;20228;-82
2022/09/27 15:28:48;;;;;;;6.80;6.60;;;12.60;99.90;;;;;;10477515;28;20660;-83
2022/09/27 15:33:54;;;;;;;10.30;9.80;;;12.70;99.90;;;;;;10489298;28;20217;-83
2022/09/27 15:39:09;;;;;;;11.03;10.53;;;12.80;99.90;;;;;;10469488;28;20204;-83
2022/09/27 15:44:44;;;;;;;8.47;8.07;;;12.80;99.90;;;;;;10470121;28;20304;-82
2022/09/27 15:49:46;;;;;;;8.30;7.90;;;12.90;99.90;;;;;;10477642;28;20240;-83
2022/09/27 15:54:51;;;;;;;8.17;7.77;;;13.00;99.90;;;;;;10477890;28;20253;-82
2022/09/27 15:59:53;;;;;;;7.50;7.20;;;12.90;99.90;;;;;;10494767;28;20280;-83
2022/09/27 16:04:55;;;;;;;6.20;5.90;;;12.90;99.90;;;;;;10501030;28;20239;-83
2022/09/27 16:09:59;;;;;;;5.57;4.97;;;13.00;99.90;;;;;;10487299;28;20748;-83
2022/09/27 16:15:01;;;;;;;6.37;5.87;;;13.00;99.90;;;;;;10492327;28;20219;-83
2022/09/27 16:20:03;;;;;;;6.57;6.27;;;13.00;99.90;;;;;;10525273;28;20217;-83
2022/09/27 16:25:07;;;;;;;6.70;6.40;;;13.00;99.90;;;;;;10506689;28;20216;-83
2022/09/27 16:30:11;;;;;;;5.00;4.70;;;13.00;99.90;;;;;;10525587;28;20216;-83
2022/09/27 16:35:14;;;;;;;6.03;5.60;;;13.00;99.90;;;;;;10528227;28;20200;-83
2022/09/27 16:40:18;;;;;;;5.83;5.63;;;13.00;99.90;;;;;;10535300;28;20216;-82
2022/09/27 16:45:20;;;;;;;5.93;5.63;;;12.90;99.90;;;;;;10518005;28;20315;-82
2022/09/27 16:55:46;;;;;;;5.30;4.97;;;12.90;99.90;;;;;;10509865;28;20192;-83
2022/09/27 17:00:48;;;;;;;5.00;4.70;;;12.90;99.90;;;;;;10523502;28;20208;-82
2022/09/27 17:05:50;;;;;;;5.13;4.93;;;12.80;99.90;;;;;;10505303;28;20208;-82
2022/09/27 17:10:55;;;;;;;5.40;5.10;;;12.80;99.90;;;;;;10505477;28;20243;-83
2022/09/27 17:15:57;;;;;;;3.60;3.33;;;12.80;99.90;;;;;;10523733;28;20652;-84
2022/09/27 17:21:02;;;;;;;4.90;4.60;;;12.80;99.90;;;;;;10507461;28;20229;-82
2022/09/27 17:26:08;;;;;;;4.80;4.50;;;12.80;99.90;;;;;;10520910;28;20220;-81
2022/09/27 17:31:14;;;;;;;5.07;4.77;;;12.80;99.90;;;;;;10516687;28;20212;-82
2022/09/27 17:36:18;;;;;;;4.43;4.23;;;12.80;99.90;;;;;;10494878;28;20197;-82
2022/09/27 17:41:23;;;;;;;3.50;3.30;;;12.80;99.90;;;;;;10491440;28;20296;-83
2022/09/27 17:46:27;;;;;;;3.43;3.33;;;12.90;99.90;;;;;;10520904;28;20713;-81
2022/09/27 17:51:30;;;;;;;7.30;4.40;;;12.90;99.90;;;;;;10511822;28;20231;-81
2022/09/27 17:56:36;;;;;;;4.07;3.77;;;12.90;99.90;;;;;;10491756;28;20204;-82
2022/09/27 18:01:39;;;;;;;3.67;3.40;;;12.90;99.90;;;;;;10479216;28;20227;-83
2022/09/27 18:06:43;;;;;;;4.03;3.73;;;12.90;99.90;;;;;;10511132;28;20216;-81
2022/09/27 18:11:47;;;;;;;3.73;3.53;;;12.90;99.90;;;;;;10478061;28;20224;-83
2022/09/27 18:16:49;;;;;;;2.97;2.80;;;12.80;99.90;;;;;;10496738;28;20214;-81
2022/09/27 18:21:52;;;;;;;3.60;3.40;;;12.70;99.90;;;;;;10498587;28;20228;-81
2022/09/27 18:26:55;;;;;;;3.73;3.53;;;12.60;99.90;;;;;;10502080;28;20231;-81
2022/09/27 18:31:58;;;;;;;3.93;3.73;;;12.60;99.90;;;;;;10511094;28;20220;-82
2022/09/27 18:37:00;;;;;;;3.57;3.47;;;12.40;99.90;;;;;;10486056;28;20657;-81
2022/09/27 18:42:04;;;;;;;3.83;3.53;;;12.30;99.90;;;;;;10495331;28;20239;-80
2022/09/27 18:47:06;;;;;;;3.70;3.50;;;12.30;99.90;;;;;;10512626;28;20728;-81
2022/09/27 18:52:08;;;;;;;3.60;3.50;;;12.30;99.90;;;;;;10443046;28;20224;-81
2022/09/27 18:57:11;;;;;;;3.97;3.77;;;12.30;99.90;;;;;;10483445;28;20820;-82
2022/09/27 19:02:13;;;;;;;3.40;3.20;;;12.30;99.90;;;;;;10500745;28;20212;-81
2022/09/27 19:07:16;;;;;;;3.50;3.20;;;12.30;99.90;;;;;;10502374;28;20289;-81
2022/09/27 19:12:19;;;;;;;4.27;4.07;;;12.20;99.90;;;;;;10523084;28;20227;-81
2022/09/27 19:17:21;;;;;;;3.40;3.30;;;12.20;99.90;;;;;;10523101;28;20200;-81
2022/09/27 19:22:23;;;;;;;4.67;4.43;;;12.10;99.90;;;;;;10515897;28;20286;-81
2022/09/27 19:27:27;;;;;;;3.47;3.37;;;12.00;99.90;;;;;;10522967;28;20231;-82
2022/09/27 19:32:29;;;;;;;3.77;3.60;;;12.00;99.90;;;;;;10485901;28;20218;-81
2022/09/27 19:37:33;;;;;;;3.40;3.30;;;11.90;99.90;;;;;;10509617;28;20231;-81
2022/09/27 19:42:37;;;;;;;4.53;4.13;;;11.90;99.90;;;;;;10492672;28;20681;-82
2022/09/27 19:47:41;;;;;;;3.37;3.17;;;11.80;99.90;;;;;;10487740;28;20283;-81
2022/09/27 19:52:45;;;;;;;3.80;3.70;;;11.80;99.90;;;;;;10501867;28;20224;-81
2022/09/27 19:57:48;;;;;;;3.90;3.70;;;11.80;99.90;;;;;;10479745;28;20741;-82
2022/09/27 20:02:51;;;;;;;3.07;2.87;;;11.70;99.90;;;;;;10502924;28;20295;-81
2022/09/27 20:07:53;;;;;;;2.63;2.53;;;11.70;99.90;;;;;;10485143;28;20212;-82
2022/09/27 20:12:58;;;;;;;3.00;2.90;;;11.60;99.90;;;;;;10501511;28;20683;-82
2022/09/27 20:18:00;;;;;;;3.37;3.27;;;11.70;99.90;;;;;;10470814;28;20200;-81
2022/09/27 20:23:02;;;;;;;3.27;3.10;;;11.60;99.90;;;;;;10471099;28;20295;-82
2022/09/27 20:28:08;;;;;;;2.40;2.30;;;11.60;99.90;;;;;;10472097;28;20220;-81
2022/09/27 20:38:30;;;;;;;2.73;2.63;;;11.50;99.90;;;;;;10473321;28;20196;-82
2022/09/27 20:43:33;;;;;;;2.30;2.20;;;11.50;99.90;;;;;;10467068;28;20217;-80
2022/09/27 20:48:37;;;;;;;2.57;2.47;;;11.40;99.90;;;;;;10486063;28;20661;-81
2022/09/27 20:53:39;;;;;;;3.60;3.30;;;11.40;99.90;;;;;;10467209;28;20612;-82
2022/09/27 20:58:43;;;;;;;2.97;2.87;;;11.40;99.90;;;;;;10483624;28;20295;-82
2022/09/27 21:03:45;;;;;;;2.97;2.80;;;11.40;99.90;;;;;;10478114;28;20659;-80
2022/09/27 21:08:47;;;;;;;3.97;3.67;;;11.40;99.90;;;;;;10465697;28;20239;-82
2022/09/27 21:13:51;;;;;;;2.90;2.80;;;11.30;99.90;;;;;;10488625;28;20250;-82
2022/09/27 21:18:55;;;;;;;3.63;3.33;;;11.40;99.90;;;;;;10485802;28;20719;-80
2022/09/27 21:23:59;;;;;;;4.63;3.40;;;11.30;99.90;;;;;;10522870;22;20310;-79
2022/09/27 21:29:07;;;;;;;3.17;2.97;;;11.30;99.90;;;;;;10489546;28;20209;-79
2022/09/27 21:34:09;;;;;;;4.20;2.40;;;11.40;99.90;;;;;;10506580;28;20267;-79
2022/09/27 21:39:13;;;;;;;4.37;4.03;;;11.40;99.90;;;;;;10501718;28;20261;-79
2022/09/27 21:44:16;;;;;;;3.07;2.87;;;11.50;99.90;;;;;;10521471;28;20214;-80
2022/09/27 21:49:18;;;;;;;2.80;2.70;;;11.50;99.90;;;;;;10501007;28;20266;-79
2022/09/27 21:54:20;;;;;;;2.73;2.53;;;11.60;99.90;;;;;;10530561;28;20291;-79
2022/09/27 21:59:24;;;;;;;2.90;2.80;;;11.60;99.90;;;;;;10535424;28;20261;-78
2022/09/27 22:04:26;;;;;;;2.80;2.60;;;11.60;99.90;;;;;;10501888;28;20754;-79
2022/09/27 22:09:28;;;;;;;4.03;3.83;;;11.60;99.90;;;;;;10528796;28;20215;-78
2022/09/27 22:14:34;;;;;;;3.83;3.53;;;11.50;99.90;;;;;;10485152;28;20247;-78
2022/09/27 22:19:36;;;;;;;5.23;4.93;;;11.40;99.90;;;;;;10529481;28;20204;-78
2022/09/27 22:24:38;;;;;;;5.37;5.17;;;11.20;99.90;;;;;;10504238;28;20224;-79
2022/09/27 22:29:41;;;;;;;7.13;6.63;;;11.10;99.90;;;;;;10510141;28;20196;-79
2022/09/27 22:34:44;;;;;;;8.90;8.20;;;11.00;99.90;;;;;;10491350;28;20322;-80
2022/09/27 22:39:49;;;;;;;11.77;10.60;;;11.00;99.90;;;;;;10521563;28;20196;-79
2022/09/27 22:44:55;;;;;;;9.03;8.33;;;10.90;99.90;;;;;;10510140;28;20215;-79
2022/09/27 22:49:59;;;;;;;8.80;8.40;;;11.00;99.90;;;;;;10507405;28;20208;-79
2022/09/27 22:55:08;;;;;;;8.87;8.40;;;10.90;99.90;;;;;;10470694;28;20216;-79
2022/09/27 23:00:13;;;;;;;9.33;8.83;;;10.90;99.90;;;;;;10503128;28;20227;-79
2022/09/27 23:37:09;;;;;;;7.87;7.57;;;11.00;99.90;;;;;;11244098;22;20221;-82
2022/09/27 23:42:13;;;;;;;7.40;7.00;;;11.00;99.90;;;;;;10471273;28;20665;-81
2022/09/27 23:47:15;;;;;;;6.40;6.20;;;11.10;99.90;;;;;;10451032;28;20259;-82
2022/09/27 23:52:18;;;;;;;6.30;6.10;;;11.10;99.90;;;;;;10478113;28;20201;-81
2022/09/27 23:57:21;;;;;;;7.00;6.80;;;11.10;99.90;;;;;;10456171;28;20221;-81
